»·PEaware :: SKW800 CYHZ-KPHL

SKW800 :: CYHZ-KPHL

FLIGHT INFORMATION

Flight Status: Arrived
Operator:
SkyWest Airlines
More flights by this operator :: More flights under this callsign
Pilot: Scott L. (17677)
Aircraft: SAAB 340
(SF34)
More flights by this aircraft type
Origin: CYHZ Halifax Intl
Canada
Destination: KPHL Philadelphia Intl
United States
More flights between these airports :: More routes between these airports
Route: CYHZ4 SENVI VIGMA ALLEX ENE BOS CCC SHERL J121 BRIGS JIIMS3
File this flight plan on PilotEdge
Remarks:
Altitude:
(Current/Filed)
24,000ft
Speed:
(Current/Filed)
220kts
Departed: 28-Apr-20 08:25 AM
Arrived: 28-Apr-20 11:43 AM
Distance/Time
Traveled:
600nm/3:18
Distance/Time
To Go:
Arrived

Flight Plot

Page will automatically refresh every two minutes.


Map Options




Map Legend


Flown Route
Filed Route
Departure Airport
Arrival Airport
Navaid (VOR, NDB)
Fix

Horizontal Profiles

Position Reports

Time Latitude Longitude Heading Altitude Ground
Speed
28-Apr-20 08:23 44.825733 -63.833523 248 14646ft 234kts
28-Apr-20 08:24 44.802613 -63.916986 248 16682ft 226kts
28-Apr-20 08:26 44.779302 -64.001170 248 18318ft 230kts
28-Apr-20 08:27 44.755604 -64.086516 247 19691ft 236kts
28-Apr-20 08:28 44.732689 -64.172354 257 21318ft 225kts
28-Apr-20 08:29 44.719541 -64.260938 258 22530ft 229kts
28-Apr-20 08:30 44.706092 -64.351600 259 23578ft 234kts
28-Apr-20 08:31 44.691804 -64.447823 259 23901ft 261kts
28-Apr-20 08:32 44.675992 -64.553290 259 23899ft 278kts
28-Apr-20 08:33 44.659593 -64.662035 258 23995ft 281kts
28-Apr-20 08:34 44.642874 -64.772240 257 23956ft 285kts
28-Apr-20 08:35 44.625844 -64.883505 257 23945ft 286kts
28-Apr-20 08:36 44.608677 -64.994852 258 23947ft 286kts
28-Apr-20 08:37 44.591386 -65.106513 257 23947ft 286kts
28-Apr-20 08:38 44.574044 -65.217507 258 23945ft 286kts
28-Apr-20 08:39 44.556559 -65.328676 257 23944ft 283kts
28-Apr-20 08:40 44.539268 -65.438078 258 23942ft 281kts
28-Apr-20 08:40 44.524809 -65.528802 258 23943ft 280kts
28-Apr-20 08:42 44.504497 -65.655589 257 23941ft 279kts
28-Apr-20 08:43 44.487014 -65.763882 257 23947ft 279kts
28-Apr-20 08:43 44.472362 -65.853985 258 23955ft 278kts
28-Apr-20 08:45 44.451986 -65.978739 258 23998ft 275kts
28-Apr-20 08:45 44.437357 -66.067790 258 24000ft 275kts
28-Apr-20 08:46 44.419756 -66.174287 258 23996ft 275kts
28-Apr-20 08:48 44.399116 -66.298230 258 23999ft 275kts
28-Apr-20 08:48 44.384276 -66.386785 258 23982ft 275kts
28-Apr-20 08:49 44.366347 -66.493235 258 24005ft 275kts
28-Apr-20 08:50 44.348353 -66.599501 259 23993ft 275kts
28-Apr-20 08:51 44.354057 -66.704581 288 23998ft 270kts
28-Apr-20 08:52 44.375809 -66.807143 288 24000ft 271kts
28-Apr-20 08:53 44.397711 -66.910320 288 24000ft 272kts
28-Apr-20 08:54 44.410833 -67.015132 259 24005ft 276kts
28-Apr-20 08:55 44.386165 -67.119255 252 24000ft 278kts
28-Apr-20 08:56 44.359647 -67.223241 252 24003ft 278kts
28-Apr-20 08:57 44.333044 -67.326755 251 23997ft 278kts
28-Apr-20 08:58 44.306630 -67.429010 251 24082ft 276kts
28-Apr-20 08:59 44.280040 -67.531531 251 24083ft 277kts
28-Apr-20 09:00 44.253269 -67.634291 251 24082ft 278kts
28-Apr-20 09:01 44.226535 -67.736422 251 24084ft 277kts
28-Apr-20 09:02 44.199809 -67.838176 251 24084ft 274kts
28-Apr-20 09:03 44.173225 -67.938932 251 24076ft 273kts
28-Apr-20 09:04 44.146641 -68.039196 251 24086ft 273kts
28-Apr-20 09:05 44.119964 -68.139468 250 24083ft 272kts
28-Apr-20 09:06 44.093195 -68.239639 251 24078ft 273kts
28-Apr-20 09:07 44.066403 -68.339486 251 24078ft 273kts
28-Apr-20 09:08 44.039330 -68.439947 250 24090ft 273kts
28-Apr-20 09:09 44.012354 -68.539616 251 24107ft 273kts
28-Apr-20 09:10 43.985158 -68.639726 250 24111ft 274kts
28-Apr-20 09:11 43.958810 -68.736271 250 24103ft 274kts
28-Apr-20 09:12 43.931373 -68.836390 252 24107ft 273kts
28-Apr-20 09:13 43.904345 -68.934723 251 24103ft 273kts
28-Apr-20 09:14 43.877177 -69.033096 251 24112ft 272kts
28-Apr-20 09:15 43.849843 -69.131709 251 24104ft 271kts
28-Apr-20 09:16 43.822442 -69.230156 251 24107ft 272kts
28-Apr-20 09:17 43.795143 -69.327795 251 24108ft 270kts
28-Apr-20 09:18 43.767908 -69.424863 252 24124ft 269kts
28-Apr-20 09:19 43.740464 -69.522310 251 24124ft 268kts
28-Apr-20 09:20 43.712940 -69.619638 251 24129ft 268kts
28-Apr-20 09:21 43.685554 -69.716100 251 24126ft 268kts
28-Apr-20 09:22 43.658039 -69.812657 251 24125ft 267kts
28-Apr-20 09:23 43.630732 -69.908103 251 24147ft 267kts
28-Apr-20 09:24 43.603196 -70.003973 251 24148ft 266kts
28-Apr-20 09:25 43.575723 -70.099278 250 24145ft 268kts
28-Apr-20 09:26 43.547867 -70.195524 250 24147ft 270kts
28-Apr-20 09:27 43.520216 -70.290728 250 24146ft 271kts
28-Apr-20 09:28 43.491986 -70.387512 250 24154ft 270kts
28-Apr-20 09:29 43.463549 -70.484687 250 24143ft 270kts
28-Apr-20 09:30 43.433846 -70.581389 239 24131ft 272kts
28-Apr-20 09:31 43.368152 -70.632949 198 24142ft 279kts
28-Apr-20 09:32 43.292784 -70.660962 195 24136ft 279kts
28-Apr-20 09:33 43.217709 -70.687743 196 24139ft 279kts
28-Apr-20 09:34 43.142558 -70.714493 196 24139ft 279kts
28-Apr-20 09:35 43.067614 -70.741051 196 24136ft 278kts
28-Apr-20 09:36 42.996750 -70.766117 196 24142ft 277kts
28-Apr-20 09:37 42.927994 -70.790370 196 24137ft 275kts
28-Apr-20 09:38 42.861916 -70.813628 196 24136ft 274kts
28-Apr-20 09:39 42.792331 -70.838068 196 24150ft 273kts
28-Apr-20 09:40 42.768685 -70.846362 196 24148ft 274kts
28-Apr-20 09:41 42.706681 -70.868075 196 24148ft 275kts
28-Apr-20 09:42 42.623353 -70.897183 196 24146ft 275kts
28-Apr-20 09:43 42.542004 -70.925520 196 24145ft 275kts
28-Apr-20 09:44 42.467902 -70.951269 196 24146ft 275kts
28-Apr-20 09:45 42.404487 -70.973255 196 24155ft 275kts
28-Apr-20 09:46 42.342800 -71.009258 225 24157ft 270kts
28-Apr-20 09:47 42.283598 -71.086044 226 24111ft 271kts
28-Apr-20 09:48 42.218489 -71.170788 226 24129ft 268kts
28-Apr-20 09:49 42.146688 -71.264083 226 24138ft 267kts
28-Apr-20 09:50 42.092956 -71.333585 226 24138ft 267kts
28-Apr-20 09:51 42.038918 -71.403373 226 24124ft 268kts
28-Apr-20 09:52 41.984915 -71.472922 226 24124ft 267kts
28-Apr-20 09:53 41.930593 -71.542724 226 24121ft 267kts
28-Apr-20 09:54 41.876529 -71.612010 226 24120ft 267kts
28-Apr-20 09:55 41.823092 -71.680335 225 24116ft 267kts
28-Apr-20 09:56 41.768761 -71.749644 226 24125ft 268kts
28-Apr-20 09:57 41.714855 -71.818009 228 24123ft 267kts
28-Apr-20 09:58 41.660765 -71.886855 228 24136ft 268kts
28-Apr-20 09:59 41.605785 -71.956488 228 24137ft 269kts
28-Apr-20 10:00 41.550795 -72.025939 228 24135ft 269kts
28-Apr-20 10:01 41.495783 -72.095256 228 24135ft 269kts
28-Apr-20 10:02 41.440605 -72.164598 228 24127ft 269kts
28-Apr-20 10:03 41.385279 -72.233953 228 24127ft 270kts
28-Apr-20 10:04 41.329765 -72.303215 232 24127ft 271kts
28-Apr-20 10:05 41.274013 -72.372916 231 24131ft 271kts
28-Apr-20 10:06 41.218289 -72.442290 231 24124ft 273kts
28-Apr-20 10:07 41.162024 -72.512163 231 24131ft 273kts
28-Apr-20 10:08 41.105594 -72.582018 231 24162ft 273kts
28-Apr-20 10:09 41.049512 -72.651315 231 24165ft 273kts
28-Apr-20 10:10 40.993142 -72.720777 231 24171ft 275kts
28-Apr-20 10:11 40.936215 -72.790352 225 24177ft 278kts
28-Apr-20 10:12 40.866338 -72.829490 207 24171ft 291kts
28-Apr-20 10:13 40.788637 -72.866975 206 24167ft 291kts
28-Apr-20 10:14 40.718243 -72.900918 206 24152ft 291kts
28-Apr-20 10:15 40.635701 -72.940524 206 24165ft 292kts
28-Apr-20 10:16 40.557859 -72.977824 206 24165ft 292kts
28-Apr-20 10:17 40.480430 -73.014833 206 24161ft 292kts
28-Apr-20 10:18 40.402246 -73.052110 206 24160ft 292kts
28-Apr-20 10:19 40.324563 -73.089043 206 24171ft 293kts
28-Apr-20 10:20 40.258380 -73.144134 248 24175ft 267kts
28-Apr-20 10:21 40.236677 -73.235743 263 24174ft 255kts
28-Apr-20 10:22 40.220509 -73.326652 265 24169ft 252kts
28-Apr-20 10:24 40.204805 -73.417201 265 24190ft 251kts
28-Apr-20 10:25 40.189122 -73.507268 264 24193ft 251kts
28-Apr-20 10:26 40.173342 -73.597504 265 24189ft 251kts
28-Apr-20 10:27 40.157558 -73.687226 265 24196ft 251kts
28-Apr-20 10:28 40.135114 -73.775459 240 24195ft 270kts
28-Apr-20 10:29 40.090628 -73.810076 208 24203ft 297kts
28-Apr-20 10:30 40.090628 -73.810076 208 24203ft 297kts
28-Apr-20 10:31 40.090628 -73.810076 208 24203ft 297kts
28-Apr-20 10:32 40.090628 -73.810076 208 24203ft 297kts
28-Apr-20 10:33 40.090628 -73.810076 208 24203ft 297kts
28-Apr-20 10:34 40.090628 -73.810076 208 24203ft 297kts
28-Apr-20 10:35 40.090628 -73.810076 208 24203ft 297kts
28-Apr-20 10:36 40.090628 -73.810076 208 24203ft 297kts
28-Apr-20 10:37 40.090628 -73.810076 208 24203ft 297kts
28-Apr-20 10:38 40.090628 -73.810076 208 24203ft 297kts
28-Apr-20 10:39 40.090628 -73.810076 208 24203ft 297kts
28-Apr-20 10:39 40.090628 -73.810076 208 24203ft 297kts
28-Apr-20 10:41 40.090628 -73.810076 208 24203ft 297kts
28-Apr-20 10:42 40.090628 -73.810076 208 24203ft 297kts
28-Apr-20 10:42 40.090628 -73.810076 208 24203ft 297kts
28-Apr-20 10:43 40.090628 -73.810076 208 24203ft 297kts
28-Apr-20 10:45 40.090628 -73.810076 208 24203ft 297kts
28-Apr-20 10:45 40.090628 -73.810076 208 24203ft 297kts
28-Apr-20 10:46 40.090628 -73.810076 208 24203ft 297kts
28-Apr-20 10:47 40.090628 -73.810076 208 24203ft 297kts
28-Apr-20 10:48 40.090628 -73.810076 208 24203ft 297kts
28-Apr-20 10:49 40.090628 -73.810076 208 24203ft 297kts
28-Apr-20 10:50 40.090628 -73.810076 208 24203ft 297kts
28-Apr-20 10:51 40.090628 -73.810076 208 24203ft 297kts
28-Apr-20 10:52 40.090628 -73.810076 208 24203ft 297kts
28-Apr-20 10:53 40.090628 -73.810076 208 24203ft 297kts
28-Apr-20 10:54 40.090628 -73.810076 208 24203ft 297kts
28-Apr-20 10:55 40.090628 -73.810076 208 24203ft 297kts
28-Apr-20 10:56 40.090628 -73.810076 208 24203ft 297kts
28-Apr-20 10:57 40.090628 -73.810076 208 24203ft 297kts
28-Apr-20 10:58 40.090628 -73.810076 208 24203ft 297kts
28-Apr-20 10:59 40.090628 -73.810076 208 24203ft 297kts
28-Apr-20 11:00 40.090628 -73.810076 208 24203ft 297kts
28-Apr-20 11:01 40.090628 -73.810076 208 24203ft 297kts
28-Apr-20 11:02 40.090628 -73.810076 208 24203ft 297kts
28-Apr-20 11:03 40.090628 -73.810076 208 24203ft 297kts
28-Apr-20 11:04 40.090628 -73.810076 208 24203ft 297kts
28-Apr-20 11:05 40.090628 -73.810076 208 24203ft 297kts
28-Apr-20 11:06 40.090628 -73.810076 208 24203ft 297kts
28-Apr-20 11:07 40.090628 -73.810076 208 24203ft 297kts
28-Apr-20 11:08 40.090628 -73.810076 208 24203ft 297kts
28-Apr-20 11:09 40.090628 -73.810076 208 24203ft 297kts
28-Apr-20 11:10 40.079096 -73.814439 210 24194ft 297kts
28-Apr-20 11:11 39.999627 -73.845724 210 24192ft 292kts
28-Apr-20 11:12 39.920511 -73.876790 209 24193ft 292kts
28-Apr-20 11:13 39.842760 -73.907328 209 22547ft 283kts
28-Apr-20 11:14 39.768295 -73.936594 206 19998ft 270kts
28-Apr-20 11:15 39.696355 -73.964502 206 17424ft 260kts
28-Apr-20 11:16 39.631422 -73.999806 226 14870ft 238kts
28-Apr-20 11:17 39.588639 -74.050697 236 14172ft 162kts
28-Apr-20 11:18 39.562731 -74.084466 230 13562ft 137kts
28-Apr-20 11:19 39.554560 -74.106076 277 11022ft 263kts
28-Apr-20 11:20 39.533521 -74.191031 269 11079ft 255kts
28-Apr-20 11:21 39.535134 -74.281749 273 9441ft 232kts
28-Apr-20 11:22 39.535254 -74.356090 273 9188ft 190kts
28-Apr-20 11:23 39.535215 -74.425436 273 9189ft 186kts
28-Apr-20 11:24 39.535114 -74.493163 273 9189ft 184kts
28-Apr-20 11:25 39.534966 -74.562519 273 8996ft 188kts
28-Apr-20 11:26 39.542939 -74.627898 310 8996ft 183kts
28-Apr-20 11:27 39.595499 -74.651960 336 8118ft 215kts
28-Apr-20 11:28 39.652613 -74.683086 332 7017ft 222kts
28-Apr-20 11:29 39.709456 -74.718316 331 5903ft 221kts
28-Apr-20 11:30 39.761817 -74.751376 330 4765ft 199kts
28-Apr-20 11:31 39.812049 -74.783119 329 3647ft 198kts
28-Apr-20 11:32 39.861578 -74.814474 329 2986ft 181kts
28-Apr-20 11:33 39.904600 -74.841774 328 2988ft 162kts
28-Apr-20 11:34 39.938544 -74.875084 279 2991ft 146kts
28-Apr-20 11:35 39.933302 -74.926807 257 2991ft 143kts
28-Apr-20 11:36 39.923783 -74.977413 256 2991ft 142kts
28-Apr-20 11:37 39.913366 -75.029250 256 2721ft 157kts
28-Apr-20 11:38 39.901915 -75.088449 254 2115ft 169kts
28-Apr-20 11:39 39.890815 -75.139255 249 1823ft 136kts
28-Apr-20 11:40 39.882830 -75.187310 256 907ft 122kts
28-Apr-20 11:41 39.874198 -75.227970 253 9ft 100kts
28-Apr-20 11:42 39.872968 -75.238163 346 8ft 5kts
28-Apr-20 11:43 39.873820 -75.239571 265 8ft 12kts
28-Apr-20 11:44 39.873698 -75.243303 345 8ft 0kts

Navigation Log

Ident Type
Flight plan parsing failed, navigation log unavailable